createdAt,value
2017-03-14T00:00:20.968Z,931.95
2017-03-14T00:00:49.122Z,931.96
2017-03-14T00:01:17.422Z,931.98
2017-03-14T00:01:45.717Z,931.97
2017-03-14T00:02:13.794Z,931.99
2017-03-14T00:02:41.937Z,931.98
2017-03-14T00:03:10.085Z,931.97
2017-03-14T00:03:38.432Z,931.99
2017-03-14T00:04:06.753Z,931.99
2017-03-14T00:04:34.969Z,931.97
2017-03-14T00:05:03.077Z,931.96
2017-03-14T00:05:31.236Z,931.9
2017-03-14T00:05:59.471Z,931.99
2017-03-14T00:06:27.628Z,932.01
2017-03-14T00:06:55.827Z,931.98
2017-03-14T00:07:24.089Z,932
2017-03-14T00:07:52.403Z,931.99
2017-03-14T00:08:20.600Z,932.01
2017-03-14T00:08:48.944Z,932.02
2017-03-14T00:09:17.220Z,932.03
2017-03-14T00:09:45.599Z,932
2017-03-14T00:10:13.802Z,932.02
2017-03-14T00:10:42.041Z,932.01
2017-03-14T00:11:10.217Z,932.04
2017-03-14T00:11:38.478Z,932.03
2017-03-14T00:12:06.634Z,932.01
2017-03-14T00:12:34.759Z,932.05
2017-03-14T00:13:02.956Z,932.05
2017-03-14T00:13:31.128Z,932.08
2017-03-14T00:13:59.445Z,932.09
2017-03-14T00:14:27.546Z,932.11
2017-03-14T00:14:55.854Z,932.15
2017-03-14T00:15:23.793Z,932.14
2017-03-14T00:15:51.988Z,932.19
2017-03-14T00:16:20.033Z,932.17
2017-03-14T00:16:48.337Z,932.15
2017-03-14T00:17:16.533Z,932.18
2017-03-14T00:17:44.713Z,932.19
2017-03-14T00:18:12.909Z,932.21
2017-03-14T00:18:41.067Z,932.2
2017-03-14T00:19:09.336Z,932.23
2017-03-14T00:19:37.732Z,932.22
2017-03-14T00:20:06.008Z,932.2
2017-03-14T00:20:34.398Z,932.24
2017-03-14T00:21:02.616Z,932.22
2017-03-14T00:21:30.790Z,932.21
2017-03-14T00:21:59.089Z,932.22
2017-03-14T00:22:27.346Z,932.23
2017-03-14T00:22:55.341Z,932.23
2017-03-14T00:23:23.735Z,932.23
2017-03-14T00:23:51.879Z,932.21
2017-03-14T00:24:19.947Z,932.26
2017-03-14T00:24:48.241Z,932.22
2017-03-14T00:25:16.554Z,932.22
2017-03-14T00:25:44.894Z,932.18
2017-03-14T00:26:13.422Z,932.22
2017-03-14T00:26:41.631Z,932.23
2017-03-14T00:27:09.772Z,932.25
2017-03-14T00:27:38.012Z,932.28
2017-03-14T00:28:06.199Z,932.34
2017-03-14T00:28:34.662Z,932.29
2017-03-14T00:29:02.817Z,932.31
2017-03-14T00:29:31.146Z,932.28
2017-03-14T00:29:59.464Z,932.3
2017-03-14T00:30:27.693Z,932.28
2017-03-14T00:30:55.891Z,932.28
2017-03-14T00:31:24.003Z,932.29
2017-03-14T00:31:52.129Z,932.32
2017-03-14T00:32:20.428Z,932.29
2017-03-14T00:32:48.552Z,932.3
2017-03-14T00:33:16.856Z,932.28
2017-03-14T00:33:45.133Z,932.27
2017-03-14T00:34:13.451Z,932.26
2017-03-14T00:34:41.757Z,932.3
2017-03-14T00:35:10.049Z,932.31
2017-03-14T00:35:38.228Z,932.25
2017-03-14T00:36:06.395Z,932.26
2017-03-14T00:36:34.659Z,932.28
2017-03-14T00:37:02.852Z,932.31
2017-03-14T00:37:30.901Z,932.26
2017-03-14T00:37:59.169Z,932.3
2017-03-14T00:38:27.472Z,932.26
2017-03-14T00:38:55.592Z,932.3
2017-03-14T00:39:23.779Z,932.28
2017-03-14T00:39:51.994Z,932.28
2017-03-14T00:40:20.309Z,932.28
2017-03-14T00:40:48.667Z,932.27
2017-03-14T00:41:16.926Z,932.28
2017-03-14T00:41:45.121Z,932.3
2017-03-14T00:42:13.255Z,932.29
2017-03-14T00:42:41.522Z,932.31
2017-03-14T00:43:09.764Z,932.3
2017-03-14T00:43:37.963Z,932.34
2017-03-14T00:44:06.232Z,932.33
2017-03-14T00:44:34.278Z,932.32
2017-03-14T00:45:02.537Z,932.38
2017-03-14T00:45:30.750Z,932.36
2017-03-14T00:45:59.018Z,932.37
2017-03-14T00:46:27.351Z,932.41
2017-03-14T00:46:55.462Z,932.35
2017-03-14T00:47:23.740Z,932.38
2017-03-14T00:47:51.889Z,932.35
2017-03-14T00:48:20.156Z,932.38
2017-03-14T00:48:48.445Z,932.4
2017-03-14T00:49:16.557Z,932.37
2017-03-14T00:49:44.764Z,932.34
2017-03-14T00:50:12.996Z,932.36
2017-03-14T00:50:41.097Z,932.38
2017-03-14T00:51:09.270Z,932.32
2017-03-14T00:51:37.529Z,932.36
2017-03-14T00:52:05.698Z,932.36
2017-03-14T00:52:33.915Z,932.36
2017-03-14T00:53:02.182Z,932.35
2017-03-14T00:53:30.289Z,932.35
2017-03-14T00:53:58.509Z,932.36
2017-03-14T00:54:26.502Z,932.34
2017-03-14T00:54:54.626Z,932.36
2017-03-14T00:55:22.825Z,932.38
2017-03-14T00:55:50.945Z,932.37
2017-03-14T00:56:19.078Z,932.39
2017-03-14T00:56:47.338Z,932.4
2017-03-14T00:57:15.595Z,932.38
2017-03-14T00:57:43.889Z,932.36
2017-03-14T00:58:11.998Z,932.33
2017-03-14T00:58:40.259Z,932.35
2017-03-14T00:59:08.519Z,932.41
2017-03-14T00:59:36.728Z,932.38
2017-03-14T01:00:04.964Z,932.38
2017-03-14T01:00:33.252Z,932.38
2017-03-14T01:01:01.509Z,932.37
2017-03-14T01:01:29.653Z,932.37
2017-03-14T01:01:57.939Z,932.35
2017-03-14T01:02:26.099Z,932.38
2017-03-14T01:02:54.281Z,932.38
2017-03-14T01:03:22.407Z,932.4
2017-03-14T01:03:50.394Z,932.37
2017-03-14T01:04:18.668Z,932.39
2017-03-14T01:04:46.852Z,932.38
2017-03-14T01:05:15.182Z,932.37
2017-03-14T01:05:43.726Z,932.35
2017-03-14T01:06:12.068Z,932.41
2017-03-14T01:06:40.510Z,932.38
2017-03-14T01:07:09.568Z,932.42
2017-03-14T01:07:37.873Z,932.41
2017-03-14T01:08:06.134Z,932.36
2017-03-14T01:08:34.318Z,932.32
2017-03-14T01:09:02.617Z,932.32
2017-03-14T01:09:30.873Z,932.31
2017-03-14T01:09:59.021Z,932.36
2017-03-14T01:10:27.274Z,932.24
2017-03-14T01:10:55.499Z,932.34
2017-03-14T01:11:23.643Z,932.35
2017-03-14T01:11:51.923Z,932.26
2017-03-14T01:12:20.181Z,932.29
2017-03-14T01:12:48.521Z,932.28
2017-03-14T01:13:16.608Z,932.28
2017-03-14T01:13:44.976Z,932.29
2017-03-14T01:14:13.174Z,932.25
2017-03-14T01:14:41.413Z,932.21
2017-03-14T01:15:09.487Z,932.25
2017-03-14T01:15:37.849Z,932.27
2017-03-14T01:16:06.161Z,932.22
2017-03-14T01:16:34.397Z,932.24
2017-03-14T01:17:02.558Z,932.24
2017-03-14T01:17:30.851Z,932.23
2017-03-14T01:17:59.280Z,932.18
2017-03-14T01:18:27.430Z,932.17
2017-03-14T01:18:55.581Z,932.17
2017-03-14T01:19:23.810Z,932.16
2017-03-14T01:19:51.911Z,932.13
2017-03-14T01:20:20.343Z,932.17
2017-03-14T01:20:48.330Z,932.1
2017-03-14T01:21:16.654Z,932.13
2017-03-14T01:21:44.670Z,932.17
2017-03-14T01:22:12.792Z,932.16
2017-03-14T01:22:40.854Z,932.16
2017-03-14T01:23:09.332Z,932.16
2017-03-14T01:23:37.601Z,932.19
2017-03-14T01:24:05.878Z,932.15
2017-03-14T01:24:33.903Z,932.14
2017-03-14T01:25:02.221Z,932.15
2017-03-14T01:25:30.506Z,932.14
2017-03-14T01:25:58.616Z,932.2
2017-03-14T01:26:27.715Z,932.17
2017-03-14T01:26:55.988Z,932.18
2017-03-14T01:27:24.186Z,932.2
2017-03-14T01:27:52.750Z,932.16
2017-03-14T01:28:20.953Z,932.2
2017-03-14T01:28:49.183Z,932.16
2017-03-14T01:29:17.362Z,932.14
2017-03-14T01:29:45.423Z,932.18
2017-03-14T01:30:13.603Z,932.16
2017-03-14T01:30:41.889Z,932.14
2017-03-14T01:31:10.079Z,932.17
2017-03-14T01:31:38.255Z,932.18
2017-03-14T01:32:06.750Z,932.19
2017-03-14T01:32:35.046Z,932.21
2017-03-14T01:33:03.187Z,932.22
2017-03-14T01:33:31.407Z,932.26
2017-03-14T01:33:59.762Z,932.26
2017-03-14T01:34:28.009Z,932.27
2017-03-14T01:34:56.146Z,932.29
2017-03-14T01:35:24.296Z,932.31
2017-03-14T01:35:52.557Z,932.3
2017-03-14T01:36:20.804Z,932.28
2017-03-14T01:36:49.024Z,932.3
2017-03-14T01:37:17.304Z,932.31
2017-03-14T01:37:45.580Z,932.3
2017-03-14T01:38:13.923Z,932.31
2017-03-14T01:38:42.238Z,932.31
2017-03-14T01:39:10.390Z,932.35
2017-03-14T01:39:38.499Z,932.36
2017-03-14T01:40:06.679Z,932.31
2017-03-14T01:40:34.895Z,932.34
2017-03-14T01:41:03.155Z,932.37
2017-03-14T01:41:31.191Z,932.38
2017-03-14T01:41:59.558Z,932.35
2017-03-14T01:42:27.907Z,932.38
2017-03-14T01:42:56.463Z,932.42
2017-03-14T01:43:24.921Z,932.33
2017-03-14T01:43:53.173Z,932.36
2017-03-14T01:44:21.592Z,932.35
2017-03-14T01:44:49.974Z,932.37
2017-03-14T01:45:18.270Z,932.37
2017-03-14T01:45:46.507Z,932.38
2017-03-14T01:46:14.769Z,932.39
2017-03-14T01:46:43.071Z,932.38
2017-03-14T01:47:11.249Z,932.35
2017-03-14T01:47:39.490Z,932.36
2017-03-14T01:48:07.655Z,932.41
2017-03-14T01:48:35.730Z,932.38
2017-03-14T01:49:03.785Z,932.41
2017-03-14T01:49:32.029Z,932.43
2017-03-14T01:50:00.291Z,932.45
2017-03-14T01:50:28.553Z,932.41
2017-03-14T01:50:56.741Z,932.4
2017-03-14T01:51:24.969Z,932.44
2017-03-14T01:51:53.217Z,932.41
2017-03-14T01:52:21.428Z,932.4
2017-03-14T01:52:49.722Z,932.41
2017-03-14T01:53:17.903Z,932.39
2017-03-14T01:53:46.048Z,932.42
2017-03-14T01:54:14.607Z,932.44
2017-03-14T01:54:42.860Z,932.44
2017-03-14T01:55:10.956Z,932.39
2017-03-14T01:55:39.196Z,932.38
2017-03-14T01:56:07.249Z,932.43
2017-03-14T01:56:35.383Z,932.38
2017-03-14T01:57:03.561Z,932.38
2017-03-14T01:57:31.714Z,932.37
2017-03-14T01:57:59.926Z,932.32
2017-03-14T01:58:28.035Z,932.35
2017-03-14T01:58:56.320Z,932.36
2017-03-14T01:59:24.521Z,932.32
2017-03-14T01:59:52.703Z,932.34
2017-03-14T02:00:20.965Z,932.33
2017-03-14T02:00:49.208Z,932.34
2017-03-14T02:01:17.315Z,932.34
2017-03-14T02:01:45.324Z,932.36
2017-03-14T02:02:13.515Z,932.36
2017-03-14T02:02:41.763Z,932.36
2017-03-14T02:03:09.791Z,932.32
2017-03-14T02:03:38.034Z,932.28
2017-03-14T02:04:06.367Z,932.32
2017-03-14T02:04:34.489Z,932.31
2017-03-14T02:05:02.710Z,932.31
2017-03-14T02:05:30.775Z,932.35
2017-03-14T02:05:58.977Z,932.33
2017-03-14T02:06:27.099Z,932.34
2017-03-14T02:06:55.207Z,932.35
2017-03-14T02:07:23.166Z,932.3
2017-03-14T02:07:51.442Z,932.28
2017-03-14T02:08:19.588Z,932.31
2017-03-14T02:08:47.691Z,932.3
2017-03-14T02:09:16.023Z,932.31
2017-03-14T02:09:44.241Z,932.35
2017-03-14T02:10:12.714Z,932.32
2017-03-14T02:10:41.044Z,932.33
2017-03-14T02:11:09.104Z,932.23
2017-03-14T02:11:37.109Z,932.26
2017-03-14T02:12:05.257Z,932.24
2017-03-14T02:12:33.425Z,932.23
2017-03-14T02:13:01.560Z,932.26
2017-03-14T02:13:29.779Z,932.22
2017-03-14T02:13:57.978Z,932.32
2017-03-14T02:14:26.214Z,932.26
2017-03-14T02:14:54.554Z,932.26
2017-03-14T02:15:22.771Z,932.25
2017-03-14T02:15:50.983Z,932.24
2017-03-14T02:16:19.140Z,932.24
2017-03-14T02:16:47.230Z,932.27
2017-03-14T02:17:15.338Z,932.22
2017-03-14T02:17:43.429Z,932.22
2017-03-14T02:18:11.471Z,932.25
2017-03-14T02:18:39.547Z,932.23
2017-03-14T02:19:07.622Z,932.24
2017-03-14T02:19:35.929Z,932.24
2017-03-14T02:20:04.113Z,932.25
2017-03-14T02:20:32.053Z,932.22
2017-03-14T02:21:00.322Z,932.25
2017-03-14T02:21:28.381Z,932.24
2017-03-14T02:21:56.609Z,932.22
2017-03-14T02:22:24.897Z,932.27
2017-03-14T02:22:53.150Z,932.23
2017-03-14T02:23:21.464Z,932.22
2017-03-14T02:23:49.728Z,932.24
2017-03-14T02:24:18.053Z,932.27
2017-03-14T02:24:46.317Z,932.24
2017-03-14T02:25:14.528Z,932.25
2017-03-14T02:25:42.744Z,932.28
2017-03-14T02:26:10.972Z,932.21
2017-03-14T02:26:40.029Z,932.23
2017-03-14T02:27:08.114Z,932.26
2017-03-14T02:27:36.393Z,932.26
2017-03-14T02:28:05.427Z,932.22
2017-03-14T02:28:33.461Z,932.24
2017-03-14T02:29:01.614Z,932.23
2017-03-14T02:29:29.702Z,932.25
2017-03-14T02:29:57.814Z,932.23
2017-03-14T02:30:25.989Z,932.21
2017-03-14T02:30:54.160Z,932.17
2017-03-14T02:31:22.402Z,932.21
2017-03-14T02:31:50.670Z,932.23
2017-03-14T02:32:18.683Z,932.21
2017-03-14T02:32:46.856Z,932.23
2017-03-14T02:33:14.821Z,932.19
2017-03-14T02:33:42.897Z,932.17
2017-03-14T02:34:11.930Z,932.17
2017-03-14T02:34:40.252Z,932.22
2017-03-14T02:35:08.500Z,932.17
2017-03-14T02:35:36.649Z,932.2
2017-03-14T02:36:04.847Z,932.19
2017-03-14T02:36:33.078Z,932.2
2017-03-14T02:37:01.323Z,932.2
2017-03-14T02:37:29.604Z,932.23
2017-03-14T02:37:57.778Z,932.16
2017-03-14T02:38:25.985Z,932.2
2017-03-14T02:38:54.116Z,932.17
2017-03-14T02:39:22.279Z,932.18
2017-03-14T02:39:50.298Z,932.11
2017-03-14T02:40:18.467Z,932.17
2017-03-14T02:40:46.589Z,932.11
2017-03-14T02:41:14.822Z,932.14
2017-03-14T02:41:42.960Z,932.11
2017-03-14T02:42:11.082Z,932.11
2017-03-14T02:42:40.087Z,932.12
2017-03-14T02:43:08.223Z,932.14
2017-03-14T02:43:36.452Z,932.09
2017-03-14T02:44:04.710Z,932.15
2017-03-14T02:44:33.051Z,932.14
2017-03-14T02:45:01.116Z,932.1
2017-03-14T02:45:29.295Z,932.15
2017-03-14T02:45:57.586Z,932.11
2017-03-14T02:46:25.765Z,932.14
2017-03-14T02:46:54.029Z,932.15
2017-03-14T02:47:22.293Z,932.23
2017-03-14T02:47:50.462Z,932.19
2017-03-14T02:48:18.707Z,932.14
2017-03-14T02:48:46.719Z,932.23
2017-03-14T02:49:14.998Z,932.28
2017-03-14T02:49:43.157Z,932.16
2017-03-14T02:50:11.322Z,932.16
2017-03-14T02:50:39.417Z,932.16
2017-03-14T02:51:07.660Z,932.17
2017-03-14T02:51:35.867Z,932.13
2017-03-14T02:52:04.079Z,932.17
2017-03-14T02:52:32.160Z,932.1
2017-03-14T02:53:00.399Z,932.13
2017-03-14T02:53:29.461Z,932.13
2017-03-14T02:53:57.630Z,932.17
2017-03-14T02:54:26.138Z,932.14
2017-03-14T02:54:54.426Z,932.13
2017-03-14T02:55:22.558Z,932.13
2017-03-14T02:55:50.747Z,932.08
2017-03-14T02:56:19.043Z,932.11
2017-03-14T02:56:47.221Z,932.05
2017-03-14T02:57:15.377Z,932.17
2017-03-14T02:57:44.203Z,932.15
2017-03-14T02:58:12.271Z,932.12
2017-03-14T02:58:40.502Z,932.14
2017-03-14T02:59:08.698Z,932.09
2017-03-14T02:59:36.771Z,932.12
2017-03-14T03:00:04.890Z,932.05
2017-03-14T03:00:33.038Z,932.15
2017-03-14T03:01:01.252Z,932.22
2017-03-14T03:01:29.445Z,932.14
2017-03-14T03:01:57.688Z,932.21
2017-03-14T03:02:25.811Z,932.15
2017-03-14T03:02:54.134Z,932.12
2017-03-14T03:03:22.296Z,932.17
2017-03-14T03:03:50.490Z,932.2
2017-03-14T03:04:18.578Z,932.2
2017-03-14T03:04:46.880Z,932.17
2017-03-14T03:05:15.122Z,932.19
2017-03-14T03:05:43.302Z,932.16
2017-03-14T03:06:11.378Z,932.18
2017-03-14T03:06:39.541Z,932.2
2017-03-14T03:07:07.808Z,932.17
2017-03-14T03:07:36.020Z,932.19
2017-03-14T03:08:04.224Z,932.18
2017-03-14T03:08:32.329Z,932.23
2017-03-14T03:09:00.486Z,932.13
2017-03-14T03:09:28.754Z,932.12
2017-03-14T03:09:56.980Z,932.06
2017-03-14T03:10:25.068Z,932.23
2017-03-14T03:10:53.246Z,932.13
2017-03-14T03:11:21.500Z,932.08
2017-03-14T03:11:49.748Z,932.07
2017-03-14T03:12:18.740Z,932.1
2017-03-14T03:12:46.885Z,932.04
2017-03-14T03:13:14.880Z,932.06
2017-03-14T03:13:42.920Z,932.11
2017-03-14T03:14:11.056Z,932.13
2017-03-14T03:14:39.300Z,932.04
2017-03-14T03:15:07.491Z,932.02
2017-03-14T03:15:35.718Z,932.09
2017-03-14T03:16:03.797Z,932.04
2017-03-14T03:16:31.911Z,932.06
2017-03-14T03:17:00.105Z,932.09
2017-03-14T03:17:28.208Z,932.1
2017-03-14T03:17:56.369Z,931.99
2017-03-14T03:18:24.486Z,932.07
2017-03-14T03:18:52.695Z,932.06
2017-03-14T03:19:20.794Z,932.11
2017-03-14T03:19:49.326Z,932.02
2017-03-14T03:20:17.440Z,932.1
2017-03-14T03:20:45.612Z,932.03
2017-03-14T03:21:13.849Z,932.01
2017-03-14T03:21:41.994Z,932.09
2017-03-14T03:22:10.058Z,932
2017-03-14T03:22:38.271Z,932.1
2017-03-14T03:23:06.537Z,931.98
2017-03-14T03:23:34.527Z,931.99
2017-03-14T03:24:02.695Z,932.08
2017-03-14T03:24:30.925Z,931.95
2017-03-14T03:24:59.240Z,931.96
2017-03-14T03:25:27.356Z,931.95
2017-03-14T03:25:55.460Z,931.95
2017-03-14T03:26:23.549Z,931.94
2017-03-14T03:26:51.643Z,931.97
2017-03-14T03:27:19.808Z,931.95
2017-03-14T03:27:47.921Z,931.94
2017-03-14T03:28:16.112Z,931.99
2017-03-14T03:28:44.341Z,931.93
2017-03-14T03:29:12.476Z,931.95
2017-03-14T03:29:40.619Z,931.97
2017-03-14T03:30:08.727Z,932.01
2017-03-14T03:30:36.779Z,931.88
2017-03-14T03:31:04.901Z,931.94
2017-03-14T03:31:33.019Z,932
2017-03-14T03:32:01.049Z,931.92
2017-03-14T03:32:29.248Z,931.94
2017-03-14T03:32:57.248Z,931.94
2017-03-14T03:33:25.397Z,931.93
2017-03-14T03:33:53.517Z,931.88
2017-03-14T03:34:21.613Z,931.95
2017-03-14T03:34:49.846Z,931.9
2017-03-14T03:35:17.981Z,931.87
2017-03-14T03:35:46.100Z,931.91
2017-03-14T03:36:14.244Z,931.9
2017-03-14T03:36:42.498Z,931.87
2017-03-14T03:37:10.564Z,931.85
2017-03-14T03:37:39.030Z,931.9
2017-03-14T03:38:07.176Z,931.82
2017-03-14T03:38:35.277Z,931.84
2017-03-14T03:39:03.553Z,931.79
2017-03-14T03:39:31.769Z,931.83
2017-03-14T03:39:59.946Z,931.78
2017-03-14T03:40:28.121Z,931.79
2017-03-14T03:40:56.217Z,931.81
2017-03-14T03:41:24.394Z,931.72
2017-03-14T03:41:52.335Z,931.76
2017-03-14T03:42:20.467Z,931.76
2017-03-14T03:42:48.577Z,931.73
2017-03-14T03:43:16.546Z,931.7
2017-03-14T03:43:44.632Z,931.7
2017-03-14T03:44:12.736Z,931.7
2017-03-14T03:44:40.980Z,931.66
2017-03-14T03:45:09.209Z,931.68
2017-03-14T03:45:37.248Z,931.69
2017-03-14T03:46:05.422Z,931.66
2017-03-14T03:46:33.344Z,931.69
2017-03-14T03:47:01.549Z,931.67
2017-03-14T03:47:29.664Z,931.67
2017-03-14T03:47:58.074Z,931.68
2017-03-14T03:48:26.304Z,931.66
2017-03-14T03:48:54.439Z,931.67
2017-03-14T03:49:22.649Z,931.69
2017-03-14T03:49:50.757Z,931.7
2017-03-14T03:50:19.258Z,931.69
2017-03-14T03:50:47.452Z,931.68
2017-03-14T03:51:15.451Z,931.64
2017-03-14T03:51:43.453Z,931.66
2017-03-14T03:52:11.567Z,931.68
2017-03-14T03:52:39.547Z,931.66
2017-03-14T03:53:07.681Z,931.65
2017-03-14T03:53:35.856Z,931.65
2017-03-14T03:54:04.059Z,931.71
2017-03-14T03:54:32.268Z,931.65
2017-03-14T03:55:00.597Z,931.65
2017-03-14T03:55:28.588Z,931.72
2017-03-14T03:55:56.779Z,931.68
2017-03-14T03:56:25.023Z,931.74
2017-03-14T03:56:53.152Z,931.73
2017-03-14T03:57:21.181Z,931.7
2017-03-14T03:57:49.195Z,931.71
2017-03-14T03:58:17.422Z,931.75
2017-03-14T03:58:45.465Z,931.72
2017-03-14T03:59:13.567Z,931.72
2017-03-14T03:59:41.860Z,931.75
2017-03-14T04:00:10.163Z,931.75
2017-03-14T04:00:38.281Z,931.74
2017-03-14T04:01:06.463Z,931.73
2017-03-14T04:01:34.679Z,931.71
2017-03-14T04:02:02.978Z,931.74
2017-03-14T04:02:31.065Z,931.72
2017-03-14T04:02:59.115Z,931.68
2017-03-14T04:03:27.402Z,931.71
2017-03-14T04:03:55.701Z,931.7
2017-03-14T04:04:23.717Z,931.69
2017-03-14T04:04:51.967Z,931.7
2017-03-14T04:05:20.367Z,931.66
2017-03-14T04:05:48.498Z,931.66
2017-03-14T04:06:16.341Z,931.68
2017-03-14T04:06:44.271Z,931.68
2017-03-14T04:07:12.572Z,931.68
2017-03-14T04:07:40.573Z,931.68
2017-03-14T04:08:08.690Z,931.7
2017-03-14T04:08:36.921Z,931.68
2017-03-14T04:09:05.073Z,931.67
2017-03-14T04:09:33.269Z,931.67
2017-03-14T04:10:01.273Z,931.64
2017-03-14T04:10:29.584Z,931.68
2017-03-14T04:10:57.814Z,931.68
2017-03-14T04:11:25.917Z,931.6
2017-03-14T04:11:54.162Z,931.61
2017-03-14T04:12:22.174Z,931.61
2017-03-14T04:12:50.317Z,931.6
2017-03-14T04:13:18.549Z,931.63
2017-03-14T04:13:46.755Z,931.62
2017-03-14T04:14:14.986Z,931.59
2017-03-14T04:14:43.168Z,931.61
2017-03-14T04:15:11.377Z,931.65
2017-03-14T04:15:39.624Z,931.67
2017-03-14T04:16:07.823Z,931.62
2017-03-14T04:16:36.045Z,931.63
2017-03-14T04:17:04.314Z,931.63
2017-03-14T04:17:32.444Z,931.6
2017-03-14T04:18:00.569Z,931.56
2017-03-14T04:18:28.677Z,931.53
2017-03-14T04:18:56.951Z,931.5
2017-03-14T04:19:25.150Z,931.53
2017-03-14T04:19:53.295Z,931.48
2017-03-14T04:20:21.423Z,931.56
2017-03-14T04:20:49.585Z,931.54
2017-03-14T04:21:17.807Z,931.49
2017-03-14T04:21:45.908Z,931.48
2017-03-14T04:22:14.050Z,931.49
2017-03-14T04:22:42.148Z,931.51
2017-03-14T04:23:10.379Z,931.47
2017-03-14T04:23:38.588Z,931.44
2017-03-14T04:24:06.794Z,931.46
2017-03-14T04:24:34.884Z,931.46
2017-03-14T04:25:03.110Z,931.49
2017-03-14T04:25:31.410Z,931.45
2017-03-14T04:25:59.638Z,931.5
2017-03-14T04:26:27.737Z,931.45
2017-03-14T04:26:55.853Z,931.48
2017-03-14T04:27:23.892Z,931.53
2017-03-14T04:27:52.049Z,931.45
2017-03-14T04:28:20.281Z,931.45
2017-03-14T04:28:48.397Z,931.57
2017-03-14T04:29:16.758Z,931.51
2017-03-14T04:29:44.949Z,931.48
2017-03-14T04:30:13.165Z,931.41
2017-03-14T04:30:41.414Z,931.48
2017-03-14T04:31:09.496Z,931.43
2017-03-14T04:31:37.515Z,931.46
2017-03-14T04:32:05.645Z,931.43
2017-03-14T04:32:33.642Z,931.4
2017-03-14T04:33:01.852Z,931.43
2017-03-14T04:33:30.059Z,931.38
2017-03-14T04:33:58.189Z,931.37
2017-03-14T04:34:26.346Z,931.37
2017-03-14T04:34:54.558Z,931.39
2017-03-14T04:35:22.750Z,931.3
2017-03-14T04:35:51.105Z,931.34
2017-03-14T04:36:19.328Z,931.3
2017-03-14T04:36:47.594Z,931.35
2017-03-14T04:37:15.750Z,931.34
2017-03-14T04:37:43.840Z,931.28
2017-03-14T04:38:11.927Z,931.38
2017-03-14T04:38:40.127Z,931.33
2017-03-14T04:39:08.313Z,931.21
2017-03-14T04:39:36.600Z,931.25
2017-03-14T04:40:04.725Z,931.27
2017-03-14T04:40:33.162Z,931.31
2017-03-14T04:41:01.408Z,931.29
2017-03-14T04:41:29.649Z,931.25
2017-03-14T04:41:57.912Z,931.31
2017-03-14T04:42:26.047Z,931.24
2017-03-14T04:42:54.341Z,931.25
2017-03-14T04:43:22.397Z,931.27
2017-03-14T04:43:50.412Z,931.27
2017-03-14T04:44:18.455Z,931.33
2017-03-14T04:44:46.754Z,931.27
2017-03-14T04:45:14.870Z,931.28
2017-03-14T04:45:42.999Z,931.29
2017-03-14T04:46:11.283Z,931.3
2017-03-14T04:46:39.442Z,931.3
2017-03-14T04:47:07.657Z,931.35
2017-03-14T04:47:35.772Z,931.37
2017-03-14T04:48:03.978Z,931.32
2017-03-14T04:48:32.118Z,931.36
2017-03-14T04:49:00.362Z,931.33
2017-03-14T04:49:28.703Z,931.32
2017-03-14T04:49:56.813Z,931.34
2017-03-14T04:50:25.080Z,931.35
2017-03-14T04:50:53.407Z,931.36
2017-03-14T04:51:21.518Z,931.3
2017-03-14T04:51:49.635Z,931.39
2017-03-14T04:52:17.750Z,931.34
2017-03-14T04:52:45.926Z,931.33
2017-03-14T04:53:14.124Z,931.34
2017-03-14T04:53:42.168Z,931.35
2017-03-14T04:54:10.366Z,931.36
2017-03-14T04:54:38.698Z,931.37
2017-03-14T04:55:06.733Z,931.36
2017-03-14T04:55:34.924Z,931.38
2017-03-14T04:56:03.222Z,931.34
2017-03-14T04:56:31.443Z,931.35
2017-03-14T04:56:59.562Z,931.3
2017-03-14T04:57:27.813Z,931.26
2017-03-14T04:57:56.030Z,931.26
2017-03-14T04:58:24.199Z,931.29
2017-03-14T04:58:52.400Z,931.25
2017-03-14T04:59:20.692Z,931.29
2017-03-14T04:59:48.888Z,931.29
2017-03-14T05:00:17.126Z,931.26
2017-03-14T05:00:45.413Z,931.26
2017-03-14T05:01:13.491Z,931.24
2017-03-14T05:01:41.778Z,931.28
2017-03-14T05:02:09.985Z,931.22
2017-03-14T05:02:38.207Z,931.24
2017-03-14T05:03:06.274Z,931.25
2017-03-14T05:03:34.411Z,931.2
2017-03-14T05:04:02.545Z,931.19
2017-03-14T05:04:30.649Z,931.17
2017-03-14T05:04:58.643Z,931.19
2017-03-14T05:05:26.584Z,931.22
2017-03-14T05:05:54.974Z,931.18
2017-03-14T05:06:23.216Z,931.17
2017-03-14T05:06:51.440Z,931.19
2017-03-14T05:07:19.720Z,931.15
2017-03-14T05:07:47.985Z,931.13
2017-03-14T05:08:16.117Z,931.12
2017-03-14T05:08:44.371Z,931.14
2017-03-14T05:09:12.468Z,931.11
2017-03-14T05:09:40.697Z,931.09
2017-03-14T05:10:08.834Z,931.07
2017-03-14T05:10:37.123Z,931.12
2017-03-14T05:11:05.213Z,931.07
2017-03-14T05:11:33.414Z,931.12
2017-03-14T05:12:01.359Z,931.07
2017-03-14T05:12:29.478Z,931.03
2017-03-14T05:12:57.593Z,931.11
2017-03-14T05:13:25.555Z,931.06
2017-03-14T05:13:53.682Z,931.08
2017-03-14T05:14:21.845Z,931.04
2017-03-14T05:14:50.027Z,931.05
2017-03-14T05:15:18.209Z,931.02
2017-03-14T05:15:46.702Z,931.11
2017-03-14T05:16:14.792Z,931.02
2017-03-14T05:16:42.913Z,931.08
2017-03-14T05:17:11.096Z,931.02
2017-03-14T05:17:39.187Z,931.04
2017-03-14T05:18:07.263Z,931.05
2017-03-14T05:18:35.380Z,931.07
2017-03-14T05:19:03.460Z,931.02
2017-03-14T05:19:31.505Z,930.98
2017-03-14T05:19:59.587Z,931.01
2017-03-14T05:20:27.618Z,930.98
2017-03-14T05:20:55.995Z,930.98
2017-03-14T05:21:24.204Z,930.97
2017-03-14T05:21:52.201Z,931
2017-03-14T05:22:20.196Z,930.95
2017-03-14T05:22:48.449Z,931
2017-03-14T05:23:16.601Z,930.97
2017-03-14T05:23:44.693Z,930.96
2017-03-14T05:24:12.841Z,930.95
2017-03-14T05:24:41.123Z,931
2017-03-14T05:25:09.196Z,930.96
2017-03-14T05:25:37.425Z,930.97
2017-03-14T05:26:05.706Z,930.96
2017-03-14T05:26:33.828Z,930.93
2017-03-14T05:27:02.043Z,930.94
2017-03-14T05:27:30.172Z,930.96
2017-03-14T05:27:58.283Z,930.92
2017-03-14T05:28:26.294Z,930.9
2017-03-14T05:28:54.507Z,930.88
2017-03-14T05:29:22.742Z,930.89
2017-03-14T05:29:50.869Z,930.9
2017-03-14T05:30:19.105Z,930.91
2017-03-14T05:30:47.271Z,930.86
2017-03-14T05:31:15.621Z,930.88
2017-03-14T05:31:43.859Z,930.85
2017-03-14T05:32:11.911Z,930.85
2017-03-14T05:32:40.052Z,930.82
2017-03-14T05:33:08.209Z,930.82
2017-03-14T05:33:36.252Z,930.79
2017-03-14T05:34:04.380Z,930.83
2017-03-14T05:34:32.580Z,930.8
2017-03-14T05:35:00.734Z,930.83
2017-03-14T05:35:28.877Z,930.78
2017-03-14T05:35:57.026Z,930.81
2017-03-14T05:36:25.287Z,930.78
2017-03-14T05:36:53.507Z,930.75
2017-03-14T05:37:21.659Z,930.76
2017-03-14T05:37:49.862Z,930.78
2017-03-14T05:38:17.979Z,930.77
2017-03-14T05:38:46.122Z,930.75
2017-03-14T05:39:14.388Z,930.77
2017-03-14T05:39:42.472Z,930.76
2017-03-14T05:40:10.668Z,930.76
2017-03-14T05:40:38.699Z,930.78
2017-03-14T05:41:07.078Z,930.77
2017-03-14T05:41:35.261Z,930.74
2017-03-14T05:42:03.459Z,930.74
2017-03-14T05:42:31.639Z,930.76
2017-03-14T05:42:59.681Z,930.74
2017-03-14T05:43:27.872Z,930.71
2017-03-14T05:43:56.030Z,930.71
2017-03-14T05:44:24.272Z,930.69
2017-03-14T05:44:52.494Z,930.71
2017-03-14T05:45:20.728Z,930.67
2017-03-14T05:45:48.892Z,930.65
2017-03-14T05:46:17.092Z,930.68
2017-03-14T05:46:45.167Z,930.67
2017-03-14T05:47:13.373Z,930.69
2017-03-14T05:47:41.503Z,930.67
2017-03-14T05:48:09.724Z,930.61
2017-03-14T05:48:37.973Z,930.64
2017-03-14T05:49:06.064Z,930.59
2017-03-14T05:49:34.195Z,930.64
2017-03-14T05:50:02.424Z,930.66
2017-03-14T05:50:30.550Z,930.58
2017-03-14T05:50:58.658Z,930.64
2017-03-14T05:51:26.971Z,930.61
2017-03-14T05:51:55.207Z,930.59
2017-03-14T05:52:23.333Z,930.56
2017-03-14T05:52:51.393Z,930.58
2017-03-14T05:53:19.567Z,930.59